createdAt,value
2022-09-06T00:00:51.920Z,0
2022-09-06T00:05:56.068Z,0
2022-09-06T00:11:00.865Z,0
2022-09-06T00:16:02.556Z,0
2022-09-06T00:21:04.776Z,0
2022-09-06T00:26:08.940Z,0
2022-09-06T00:31:11.336Z,0
2022-09-06T00:36:15.361Z,0
2022-09-06T00:41:19.530Z,0
2022-09-06T00:46:23.740Z,0
2022-09-06T00:51:27.838Z,0
2022-09-06T00:56:32.010Z,0
2022-09-06T01:01:36.298Z,0
2022-09-06T01:06:40.315Z,0
2022-09-06T01:11:44.460Z,0
2022-09-06T01:16:48.630Z,0
2022-09-06T01:21:52.776Z,0
2022-09-06T01:26:56.932Z,0
2022-09-06T01:32:01.080Z,0
2022-09-06T01:37:10.375Z,0
2022-09-06T01:42:09.411Z,0
2022-09-06T01:47:13.591Z,0
2022-09-06T01:52:17.730Z,0
2022-09-06T01:57:21.897Z,0
2022-09-06T02:02:26.106Z,0
2022-09-06T02:07:30.217Z,0
2022-09-06T02:12:34.372Z,0
2022-09-06T02:17:36.628Z,0
2022-09-06T02:22:40.806Z,0
2022-09-06T02:27:44.991Z,0
2022-09-06T02:32:49.114Z,0
2022-09-06T02:37:53.277Z,0
2022-09-06T02:42:57.439Z,0
2022-09-06T02:48:01.622Z,0
2022-09-06T02:53:05.780Z,0
2022-09-06T02:58:09.912Z,0
2022-09-06T03:03:14.077Z,0
2022-09-06T03:08:18.241Z,0
2022-09-06T03:13:22.421Z,0
2022-09-06T03:18:26.744Z,0
2022-09-06T03:28:34.909Z,0
2022-09-06T03:33:39.035Z,0
2022-09-06T03:38:43.200Z,0
2022-09-06T03:43:47.371Z,0
2022-09-06T03:48:51.539Z,0
2022-09-06T03:53:55.654Z,0
2022-09-06T03:58:59.852Z,0
2022-09-06T04:04:04.017Z,0
2022-09-06T04:09:06.281Z,0
2022-09-06T04:14:10.416Z,0
2022-09-06T04:19:14.585Z,0
2022-09-06T04:24:18.767Z,0
2022-09-06T04:29:22.914Z,0
2022-09-06T04:34:27.116Z,0
2022-09-06T04:39:31.253Z,2
2022-09-06T04:44:35.411Z,9
2022-09-06T04:49:39.548Z,26
2022-09-06T04:54:43.739Z,45
2022-09-06T04:59:47.875Z,78
2022-09-06T05:04:52.002Z,123
2022-09-06T05:09:58.208Z,175
2022-09-06T05:15:00.449Z,230
2022-09-06T05:20:04.507Z,399
2022-09-06T05:25:08.690Z,458
2022-09-06T05:30:12.816Z,527
2022-09-06T05:35:17.000Z,652
2022-09-06T05:40:21.142Z,896
2022-09-06T05:45:25.333Z,1180
2022-09-06T05:50:29.462Z,1430
2022-09-06T05:55:31.727Z,1622
2022-09-06T06:00:35.889Z,1564
2022-09-06T06:05:38.133Z,1415
2022-09-06T06:10:42.316Z,1232
2022-09-06T06:15:44.601Z,1186
2022-09-06T06:20:48.737Z,1165
2022-09-06T06:25:52.897Z,1168
2022-09-06T06:30:57.062Z,1183
2022-09-06T06:36:01.261Z,1201
2022-09-06T06:41:07.003Z,1216
2022-09-06T06:46:09.619Z,1235
2022-09-06T06:51:13.692Z,1247
2022-09-06T06:56:17.847Z,1260
2022-09-06T07:01:22.117Z,1270
2022-09-06T07:11:30.315Z,1295
2022-09-06T07:16:34.525Z,1306
2022-09-06T07:21:38.896Z,1318
2022-09-06T07:26:42.976Z,1329
2022-09-06T07:32:11.643Z,1340
2022-09-06T07:36:51.103Z,1353
2022-09-06T07:41:55.273Z,1358
2022-09-06T07:57:07.757Z,1378
2022-09-06T08:02:11.947Z,1381
2022-09-06T08:07:40.296Z,1389
2022-09-06T08:12:18.351Z,1399
2022-09-06T08:17:22.497Z,1402
2022-09-06T08:22:24.760Z,1409
2022-09-06T08:27:28.917Z,1417
2022-09-06T08:32:33.108Z,1424
2022-09-06T08:37:37.278Z,1432
2022-09-06T08:42:41.408Z,1440
2022-09-06T08:47:45.607Z,1445
2022-09-06T08:53:06.485Z,1450
2022-09-06T08:57:53.904Z,1459
2022-09-06T09:02:58.044Z,1464
2022-09-06T09:08:02.193Z,1467
2022-09-06T09:13:06.541Z,1470
2022-09-06T09:18:10.512Z,1469
2022-09-06T09:23:14.698Z,1481
2022-09-06T09:28:18.831Z,1483
2022-09-06T09:33:23.126Z,1493
2022-09-06T09:38:27.149Z,1499
2022-09-06T09:43:31.337Z,1505
2022-09-06T09:48:35.473Z,1514
2022-09-06T09:53:39.663Z,1516
2022-09-06T09:58:43.799Z,1517
2022-09-06T10:08:50.226Z,1536
2022-09-06T10:13:54.386Z,1552
2022-09-06T10:18:58.585Z,1560
2022-09-06T10:24:28.336Z,1573
2022-09-06T10:29:06.827Z,1590
2022-09-06T10:34:10.995Z,1606
2022-09-06T10:39:15.155Z,1615
2022-09-06T10:44:19.353Z,1642
2022-09-06T10:49:23.498Z,1662
2022-09-06T10:54:27.643Z,1665
2022-09-06T11:09:40.137Z,1700
2022-09-06T11:14:44.309Z,1719
2022-09-06T11:19:48.424Z,1732
2022-09-06T11:24:52.630Z,1720
2022-09-06T11:29:56.772Z,1710
2022-09-06T11:35:00.981Z,1705
2022-09-06T11:40:30.752Z,1693
2022-09-06T11:45:09.261Z,1688
2022-09-06T11:50:13.430Z,1691
2022-09-06T11:55:17.264Z,1695
2022-09-06T12:00:19.837Z,1732
2022-09-06T12:05:23.992Z,1770
2022-09-06T12:10:28.165Z,1841
2022-09-06T12:15:32.305Z,1925
2022-09-06T12:20:36.482Z,2039
2022-09-06T12:25:40.600Z,2295
2022-09-06T12:30:44.809Z,2280
2022-09-06T12:35:56.377Z,2138
2022-09-06T12:40:53.088Z,1963
2022-09-06T12:45:57.291Z,1947
2022-09-06T12:51:01.421Z,1886
2022-09-06T12:56:05.567Z,1952
2022-09-06T13:01:09.954Z,2074
2022-09-06T13:06:13.908Z,2205
2022-09-06T13:11:18.052Z,2529
2022-09-06T13:16:22.361Z,3146
2022-09-06T13:21:26.373Z,4088
2022-09-06T13:26:30.525Z,4233
2022-09-06T13:31:34.838Z,2902
2022-09-06T13:36:38.863Z,2509
2022-09-06T13:41:41.138Z,2089
2022-09-06T13:46:45.343Z,2817
2022-09-06T13:51:47.544Z,2462
2022-09-06T13:56:51.702Z,2470
2022-09-06T14:02:00.072Z,2406
2022-09-06T14:06:58.142Z,2415
2022-09-06T14:12:00.424Z,2834
2022-09-06T14:22:08.887Z,2378
2022-09-06T14:27:12.898Z,2332
2022-09-06T14:32:20.521Z,2212
2022-09-06T14:37:21.203Z,2219
2022-09-06T14:42:25.349Z,2204
2022-09-06T14:47:29.569Z,2174
2022-09-06T14:52:33.688Z,2150
2022-09-06T14:57:37.818Z,2135
2022-09-06T15:02:42.050Z,2251
2022-09-06T15:07:46.175Z,2341
2022-09-06T15:12:50.297Z,2927
2022-09-06T15:17:54.463Z,16077
2022-09-06T15:23:21.601Z,15875
2022-09-06T15:28:02.773Z,16715
2022-09-06T15:33:06.955Z,20501
2022-09-06T15:38:11.393Z,10063
2022-09-06T15:43:15.266Z,7876
2022-09-06T15:48:17.553Z,7335
2022-09-06T15:53:21.690Z,7261
2022-09-06T15:58:25.849Z,6045
2022-09-06T16:03:28.295Z,5833
2022-09-06T16:08:32.319Z,5632
2022-09-06T16:13:34.566Z,4405
2022-09-06T16:18:38.722Z,5099
2022-09-06T16:23:42.854Z,5211
2022-09-06T16:28:47.020Z,16120
2022-09-06T16:33:51.189Z,8965
2022-09-06T16:38:55.357Z,7809
2022-09-06T16:43:59.549Z,3492
2022-09-06T16:49:03.707Z,2588
2022-09-06T16:54:07.811Z,2057
2022-09-06T16:59:12.010Z,1711
2022-09-06T17:04:16.124Z,1586
2022-09-06T17:09:20.347Z,1552
2022-09-06T17:14:24.483Z,1299
2022-09-06T17:19:28.622Z,1212
2022-09-06T17:24:32.795Z,774
2022-09-06T17:29:36.979Z,670
2022-09-06T17:34:41.125Z,579
2022-09-06T17:39:45.310Z,528
2022-09-06T17:44:49.411Z,444
2022-09-06T17:49:53.587Z,327
2022-09-06T17:54:57.740Z,255
2022-09-06T18:00:00.020Z,230
2022-09-06T18:05:04.263Z,150
2022-09-06T18:10:06.475Z,107
2022-09-06T18:15:10.605Z,75
2022-09-06T18:20:14.760Z,35
2022-09-06T18:25:18.924Z,16
2022-09-06T18:30:23.083Z,6
2022-09-06T18:35:27.217Z,2
2022-09-06T18:40:31.358Z,0
2022-09-06T18:45:35.561Z,0
2022-09-06T18:50:39.722Z,0
2022-09-06T18:55:43.880Z,0
2022-09-06T19:00:48.066Z,0
2022-09-06T19:05:52.215Z,0
2022-09-06T19:10:56.401Z,0
2022-09-06T19:16:00.549Z,0
2022-09-06T19:21:04.644Z,0
2022-09-06T19:26:10.015Z,0
2022-09-06T19:31:13.034Z,0
2022-09-06T19:36:17.122Z,0
2022-09-06T19:41:21.293Z,0
2022-09-06T19:46:25.557Z,0
2022-09-06T19:51:29.661Z,0
2022-09-06T19:56:31.895Z,0
2022-09-06T20:06:40.217Z,0
2022-09-06T20:11:42.479Z,0
2022-09-06T20:16:46.698Z,0
2022-09-06T20:26:54.965Z,0
2022-09-06T20:31:59.157Z,0
2022-09-06T20:37:03.247Z,0
2022-09-06T20:47:11.667Z,0
2022-09-06T20:52:15.742Z,0
2022-09-06T20:57:19.919Z,0
2022-09-06T21:02:24.164Z,0
2022-09-06T21:07:28.251Z,0
2022-09-06T21:12:32.408Z,0
2022-09-06T21:17:34.674Z,0
2022-09-06T21:22:45.795Z,0
2022-09-06T21:27:57.002Z,0
2022-09-06T21:33:08.332Z,0
2022-09-06T21:38:19.303Z,0
2022-09-06T21:43:30.529Z,0
2022-09-06T21:48:40.069Z,0
2022-09-06T21:53:43.941Z,0
2022-09-06T21:58:48.114Z,0
2022-09-06T22:03:52.290Z,0
2022-09-06T22:08:56.424Z,0
2022-09-06T22:14:00.578Z,0
2022-09-06T22:19:04.724Z,0
2022-09-06T22:24:10.852Z,0
2022-09-06T22:29:13.041Z,0
2022-09-06T22:34:17.178Z,0
2022-09-06T22:39:21.347Z,0
2022-09-06T22:44:25.481Z,0
2022-09-06T22:49:29.651Z,0
2022-09-06T22:54:33.834Z,0
2022-09-06T22:59:37.990Z,0
2022-09-06T23:04:42.145Z,0
2022-09-06T23:09:46.321Z,0
2022-09-06T23:14:50.443Z,0
2022-09-06T23:19:54.613Z,0
2022-09-06T23:24:58.776Z,0
2022-09-06T23:30:02.971Z,0
2022-09-06T23:35:05.207Z,0
2022-09-06T23:40:09.465Z,0
2022-09-06T23:45:11.614Z,0
2022-09-06T23:50:15.817Z,0
2022-09-06T23:55:19.954Z,0
